Aitkin, Minnesota
Current Conditions -  °F | °C
As of 7:53 AM on Wednesday 28 Jan 2015 (Local Time) from KAIT Reporting Station
Haze Haze  
Wind Chill: 23°   Ceiling: 500
Heat Index: 30°   Visibility: 5mi
Dew Point: 25°   Wind: 8mph
Humidity: 80%   Direction: 140°SE
Pressure: 29.92"   Gusts: 16mph
Location:  46.53°N, 93.71°W
Report Text: KAIT 281353Z AUTO 14007G14KT 5SM HZ OVC005 M01/M04 A2992 RMK AO2
Loading
Personal Weather Stations






























Interactive Weather Map New forecast layout! Learn more

10-Day Weather Forecast

Advertisements
Track Severe Weather on mobile